Terminal Aerodrome Forecast
Issued by NWS

Home | Current Version | Previous Version | Text Only | Print | Product List | Glossary On
Versions: 1 2 3 4 5 6 7 8 9 10 11 12 13 14
887
FTUS43 KAPX 191720
TAFPLN
TAF
KPLN 191720Z 1918/2018 26011G20KT P6SM BKN200
     FM200000 22004KT P6SM SCT250 WS015/26030KT
     FM201400 20007KT P6SM SCT250=

USA.gov is the U.S. government's official web portal to all federal, state and local government web resources and services.